Time;durP1;ratioP1;P1;durP2;ratioP2;P2;SDS_P1;SDS_P2;PMS_P1;PMS_P2;Temp;Humidity;BMP_temperature;BMP_pressure;BME280_temperature;BME280_humidity;BME280_pressure;Samples;Min_cycle;Max_cycle;Signal;HPM_P1;HPM_P2
2022/01/29 00:01:21;;;;;;;0.30;0.10;;;1.30;99.90;;;;;;5061863;28;20492;-86
2022/01/29 00:03:48;;;;;;;0.30;0.10;;;1.30;99.90;;;;;;5062647;28;20447;-84
2022/01/29 00:06:16;;;;;;;0.30;0.13;;;1.30;99.90;;;;;;5062031;28;20518;-85
2022/01/29 00:08:43;;;;;;;0.30;0.10;;;1.30;99.90;;;;;;5068583;28;20438;-85
2022/01/29 00:11:13;;;;;;;0.30;0.10;;;1.30;99.90;;;;;;5065241;28;20473;-87
2022/01/29 00:13:40;;;;;;;0.30;0.10;;;1.30;99.90;;;;;;5063531;28;20458;-84
2022/01/29 00:16:09;;;;;;;0.30;0.10;;;1.30;99.90;;;;;;5060890;28;20570;-86
2022/01/29 00:18:37;;;;;;;0.30;0.10;;;1.40;99.90;;;;;;5066416;28;20505;-87
2022/01/29 00:21:04;;;;;;;0.30;0.10;;;1.40;99.90;;;;;;5069718;28;21034;-85
2022/01/29 00:23:31;;;;;;;0.30;0.10;;;1.40;99.90;;;;;;5063741;28;20451;-86
2022/01/29 00:25:59;;;;;;;0.30;0.10;;;1.30;99.90;;;;;;5065227;28;20442;-86
2022/01/29 00:28:26;;;;;;;0.30;0.10;;;1.40;99.90;;;;;;5065572;28;20535;-84
2022/01/29 00:30:53;;;;;;;0.30;0.10;;;1.40;99.90;;;;;;5068131;28;20471;-85
2022/01/29 00:33:22;;;;;;;0.30;0.10;;;1.40;99.90;;;;;;5062017;28;20922;-85
2022/01/29 00:35:49;;;;;;;0.90;0.80;;;1.40;99.90;;;;;;5066260;28;20586;-84
2022/01/29 00:38:16;;;;;;;0.30;0.10;;;1.40;99.90;;;;;;5065212;28;20493;-84
2022/01/29 00:40:45;;;;;;;0.30;0.10;;;1.40;99.90;;;;;;5067171;28;20495;-84
2022/01/29 00:43:12;;;;;;;0.30;0.10;;;1.30;99.90;;;;;;5066806;28;20448;-86
2022/01/29 00:45:39;;;;;;;1.27;1.27;;;1.40;99.90;;;;;;5067880;28;20516;-84
2022/01/29 00:48:06;;;;;;;0.57;0.27;;;1.30;99.90;;;;;;5065380;28;20497;-84
2022/01/29 00:50:34;;;;;;;0.30;0.10;;;1.30;99.90;;;;;;5065625;28;20509;-84
2022/01/29 00:53:01;;;;;;;0.30;0.10;;;1.30;99.90;;;;;;5065804;28;20847;-84
2022/01/29 00:55:28;;;;;;;0.30;0.10;;;1.40;99.90;;;;;;5061391;28;20432;-85
2022/01/29 00:57:55;;;;;;;0.30;0.10;;;1.40;99.90;;;;;;5083832;28;20463;-84
2022/01/29 01:00:22;;;;;;;0.30;0.10;;;1.40;99.90;;;;;;5084242;28;20585;-84
2022/01/29 01:02:49;;;;;;;0.33;0.17;;;1.40;99.90;;;;;;5078553;28;20985;-85
2022/01/29 01:05:16;;;;;;;0.30;0.10;;;1.40;99.90;;;;;;5065323;28;20501;-85
2022/01/29 01:07:45;;;;;;;0.30;0.10;;;1.40;99.90;;;;;;5058763;28;20504;-85
2022/01/29 01:10:13;;;;;;;0.30;0.10;;;1.40;99.90;;;;;;5061883;28;20467;-85
2022/01/29 01:12:40;;;;;;;0.30;0.10;;;1.40;99.90;;;;;;5058558;28;20915;-86
2022/01/29 01:15:08;;;;;;;0.30;0.10;;;1.40;99.90;;;;;;5061936;28;20440;-87
2022/01/29 01:17:35;;;;;;;0.30;0.10;;;1.40;99.90;;;;;;5060811;28;20555;-85
2022/01/29 01:20:03;;;;;;;0.30;0.10;;;1.40;99.90;;;;;;5066140;28;20534;-87
2022/01/29 01:22:30;;;;;;;0.30;0.10;;;1.30;99.90;;;;;;5064700;28;20444;-84
2022/01/29 01:24:58;;;;;;;0.30;0.20;;;1.40;99.90;;;;;;5067579;28;20500;-84
2022/01/29 01:27:25;;;;;;;0.50;0.50;;;1.50;99.90;;;;;;5062594;28;20469;-84
2022/01/29 01:29:52;;;;;;;0.30;0.10;;;1.50;99.90;;;;;;5065113;28;20470;-84
2022/01/29 01:32:19;;;;;;;0.30;0.10;;;1.50;99.90;;;;;;5069923;28;20498;-86
2022/01/29 01:34:50;;;;;;;0.30;0.10;;;1.50;99.90;;;;;;5070752;28;20451;-85
2022/01/29 01:37:28;;;;;;;0.30;0.10;;;1.50;99.90;;;;;;5063227;28;20825;-85
2022/01/29 01:39:56;;;;;;;0.30;0.10;;;1.50;99.90;;;;;;5061161;28;20536;-87
2022/01/29 01:42:24;;;;;;;0.90;0.80;;;1.40;99.90;;;;;;5061883;28;20236;-87
2022/01/29 01:44:52;;;;;;;0.30;0.10;;;1.50;99.90;;;;;;5068587;28;20243;-84
2022/01/29 01:47:19;;;;;;;0.30;0.10;;;1.40;99.90;;;;;;5064918;28;20534;-87
2022/01/29 01:49:46;;;;;;;0.87;0.70;;;1.40;99.90;;;;;;5068732;28;20502;-87
2022/01/29 01:52:15;;;;;;;0.30;0.10;;;1.40;99.90;;;;;;5070468;28;20432;-84
2022/01/29 01:54:43;;;;;;;0.30;0.10;;;1.30;99.90;;;;;;5064873;28;20456;-87
2022/01/29 01:57:11;;;;;;;0.30;0.10;;;1.30;99.90;;;;;;5065135;28;20447;-85
2022/01/29 01:59:39;;;;;;;0.93;0.93;;;1.30;99.90;;;;;;5065596;28;20471;-86
2022/01/29 02:02:06;;;;;;;0.30;0.10;;;1.30;99.90;;;;;;5062494;28;20501;-84
2022/01/29 02:04:33;;;;;;;0.30;0.10;;;1.20;99.90;;;;;;5070212;28;20617;-84
2022/01/29 02:07:02;;;;;;;0.30;0.10;;;1.10;99.90;;;;;;5066074;28;20205;-85
2022/01/29 02:09:30;;;;;;;0.30;0.10;;;1.10;99.90;;;;;;5068216;28;20445;-84
2022/01/29 02:12:00;;;;;;;0.30;0.10;;;1.10;99.90;;;;;;5065361;28;20695;-85
2022/01/29 02:14:30;;;;;;;0.30;0.10;;;1.10;99.90;;;;;;5060150;28;20467;-87
2022/01/29 02:17:00;;;;;;;0.30;0.10;;;1.10;99.90;;;;;;5064316;28;20467;-84
2022/01/29 02:19:27;;;;;;;0.30;0.10;;;1.10;99.90;;;;;;5068594;28;20873;-86
2022/01/29 02:21:56;;;;;;;0.30;0.10;;;1.10;99.90;;;;;;5060325;28;20248;-87
2022/01/29 02:24:23;;;;;;;0.50;0.40;;;1.10;99.90;;;;;;5069415;28;20970;-86
2022/01/29 02:26:51;;;;;;;0.40;0.40;;;1.10;99.90;;;;;;5055704;28;20520;-86
2022/01/29 02:29:19;;;;;;;0.40;0.30;;;1.00;99.90;;;;;;5066995;28;20872;-85
2022/01/29 02:31:48;;;;;;;0.30;0.10;;;1.00;99.90;;;;;;5069449;28;20206;-86
2022/01/29 02:34:15;;;;;;;0.30;0.10;;;0.90;99.90;;;;;;5090735;28;20198;-88
2022/01/29 02:36:43;;;;;;;0.30;0.10;;;0.90;99.90;;;;;;5082059;28;20264;-83
2022/01/29 02:39:13;;;;;;;0.35;0.25;;;0.80;99.90;;;;;;5081948;28;20210;-84
2022/01/29 02:41:43;;;;;;;0.30;0.10;;;0.90;99.90;;;;;;5059993;28;20571;-88
2022/01/29 02:44:10;;;;;;;0.30;0.10;;;0.90;99.90;;;;;;5053453;28;20854;-87
2022/01/29 02:46:49;;;;;;;0.30;0.10;;;0.90;99.90;;;;;;5051214;28;20210;-87
2022/01/29 02:49:17;;;;;;;0.30;0.10;;;1.00;99.90;;;;;;5060241;28;20235;-86
2022/01/29 02:51:46;;;;;;;0.30;0.10;;;1.00;99.90;;;;;;5064350;28;20251;-86
2022/01/29 02:54:15;;;;;;;0.30;0.17;;;1.10;99.90;;;;;;5063760;28;20452;-83
2022/01/29 02:56:42;;;;;;;0.30;0.10;;;1.10;99.90;;;;;;5063989;28;21011;-83
2022/01/29 02:59:09;;;;;;;0.30;0.10;;;1.20;99.90;;;;;;5065909;28;20606;-83
2022/01/29 03:01:36;;;;;;;0.30;0.10;;;1.20;99.90;;;;;;5070077;28;20252;-84
2022/01/29 03:04:05;;;;;;;0.30;0.10;;;1.20;99.90;;;;;;5066019;28;20193;-83
2022/01/29 03:06:33;;;;;;;0.30;0.10;;;1.30;99.90;;;;;;5069419;28;20265;-83
2022/01/29 03:09:00;;;;;;;0.30;0.10;;;1.30;99.90;;;;;;5062315;28;20457;-83
2022/01/29 03:11:28;;;;;;;0.30;0.10;;;1.30;99.90;;;;;;5066880;28;20474;-83
2022/01/29 03:13:55;;;;;;;0.30;0.10;;;1.40;99.90;;;;;;5056342;28;20661;-83
2022/01/29 03:16:22;;;;;;;0.30;0.10;;;1.30;99.90;;;;;;5064147;28;20195;-83
2022/01/29 03:18:49;;;;;;;0.30;0.20;;;1.40;99.90;;;;;;5066793;28;20245;-84
2022/01/29 03:21:16;;;;;;;0.30;0.10;;;1.40;99.90;;;;;;5060385;28;20220;-83
2022/01/29 03:23:43;;;;;;;0.30;0.10;;;1.50;99.90;;;;;;5068360;28;20922;-84
2022/01/29 03:26:10;;;;;;;0.30;0.10;;;1.50;99.90;;;;;;5061392;28;20476;-86
2022/01/29 03:28:39;;;;;;;0.30;0.10;;;1.50;99.90;;;;;;5060558;28;20440;-86
2022/01/29 03:31:06;;;;;;;0.97;0.97;;;1.50;99.90;;;;;;5061442;28;20861;-86
2022/01/29 03:33:33;;;;;;;0.30;0.10;;;1.60;99.90;;;;;;5063942;28;20468;-84
2022/01/29 03:36:00;;;;;;;0.30;0.10;;;1.50;99.90;;;;;;5068820;28;20205;-87
2022/01/29 03:38:27;;;;;;;0.30;0.10;;;1.50;99.90;;;;;;5058119;28;20479;-84
2022/01/29 03:40:58;;;;;;;0.50;0.37;;;1.40;99.90;;;;;;5068671;28;20989;-86
2022/01/29 03:43:29;;;;;;;0.30;0.10;;;1.40;99.90;;;;;;5067416;28;20448;-84
2022/01/29 03:45:58;;;;;;;0.30;0.10;;;1.40;99.90;;;;;;5057145;28;20287;-84
2022/01/29 03:48:25;;;;;;;0.30;0.10;;;1.30;99.90;;;;;;5069813;28;20254;-86
2022/01/29 03:50:52;;;;;;;0.30;0.10;;;1.30;99.90;;;;;;5068867;28;20212;-85
2022/01/29 03:53:19;;;;;;;0.30;0.10;;;1.30;99.90;;;;;;5068982;28;20513;-84
2022/01/29 03:55:46;;;;;;;0.30;0.10;;;1.40;99.90;;;;;;5065106;28;20946;-88
2022/01/29 03:58:13;;;;;;;0.30;0.10;;;1.40;99.90;;;;;;5063885;28;20652;-85
2022/01/29 04:00:40;;;;;;;0.30;0.10;;;1.40;99.90;;;;;;5066314;28;20494;-85
2022/01/29 04:03:09;;;;;;;0.30;0.10;;;1.40;99.90;;;;;;5072998;28;20197;-85
2022/01/29 04:05:36;;;;;;;0.50;0.45;;;1.30;99.90;;;;;;5065095;28;20205;-85
2022/01/29 04:08:07;;;;;;;0.30;0.10;;;1.30;99.90;;;;;;5075940;28;20196;-85
2022/01/29 04:10:34;;;;;;;1.70;0.65;;;1.30;99.90;;;;;;5075987;28;20218;-85
2022/01/29 04:13:01;;;;;;;0.30;0.10;;;1.30;99.90;;;;;;5077157;28;20545;-85
2022/01/29 04:15:28;;;;;;;0.30;0.10;;;1.30;99.90;;;;;;5069133;28;20475;-85
2022/01/29 04:17:55;;;;;;;0.30;0.10;;;1.40;99.90;;;;;;5060981;28;20441;-84
2022/01/29 04:20:24;;;;;;;0.30;0.10;;;1.40;99.90;;;;;;5058139;28;20541;-85
2022/01/29 04:22:50;;;;;;;0.30;0.10;;;1.30;99.90;;;;;;5063924;28;20442;-85
2022/01/29 04:25:18;;;;;;;0.30;0.10;;;1.30;99.90;;;;;;5062004;28;20490;-86
2022/01/29 04:27:47;;;;;;;0.30;0.10;;;1.30;99.90;;;;;;5070419;28;20998;-86
2022/01/29 04:30:26;;;;;;;0.30;0.20;;;1.40;99.90;;;;;;5061797;28;20200;-84
2022/01/29 04:33:00;;;;;;;0.30;0.20;;;1.40;99.90;;;;;;5068091;28;20224;-85
2022/01/29 04:35:30;;;;;;;0.30;0.10;;;1.30;99.90;;;;;;5063371;28;20205;-85
2022/01/29 04:37:57;;;;;;;0.30;0.30;;;1.30;99.90;;;;;;5072324;28;20648;-88
2022/01/29 04:40:24;;;;;;;0.30;0.10;;;1.20;99.90;;;;;;5072978;28;21010;-86
2022/01/29 04:42:51;;;;;;;0.30;0.10;;;1.20;99.90;;;;;;5072796;28;20503;-88
2022/01/29 04:45:18;;;;;;;0.30;0.10;;;1.20;99.90;;;;;;5069625;28;20467;-86
2022/01/29 04:47:45;;;;;;;0.30;0.10;;;1.20;99.90;;;;;;5059717;28;21062;-85
2022/01/29 04:50:12;;;;;;;0.30;0.10;;;1.10;99.90;;;;;;5058750;28;20446;-86
2022/01/29 04:52:41;;;;;;;0.30;0.20;;;1.10;99.90;;;;;;5066876;28;20919;-87
2022/01/29 04:55:09;;;;;;;0.30;0.10;;;1.10;99.90;;;;;;5071552;28;20442;-89
2022/01/29 04:57:39;;;;;;;0.30;0.20;;;1.00;99.90;;;;;;5063219;28;20644;-88
2022/01/29 05:00:10;;;;;;;0.30;0.10;;;1.00;99.90;;;;;;5063795;28;20538;-88
2022/01/29 05:02:37;;;;;;;0.30;0.10;;;1.00;99.90;;;;;;5055625;28;20252;-85
2022/01/29 05:05:05;;;;;;;0.30;0.10;;;1.00;99.90;;;;;;5066084;28;20238;-87
2022/01/29 05:07:32;;;;;;;0.30;0.10;;;1.00;99.90;;;;;;5043838;28;20464;-85
2022/01/29 05:10:01;;;;;;;0.30;0.10;;;0.90;99.90;;;;;;5064913;28;20267;-87
2022/01/29 05:12:33;;;;;;;0.30;0.15;;;1.00;99.90;;;;;;5058152;28;20456;-87
2022/01/29 05:15:09;;;;;;;0.30;0.10;;;1.00;99.90;;;;;;5061201;28;20227;-85
2022/01/29 05:28:35;;;;;;;0.30;0.10;;;1.10;99.90;;;;;;5063391;28;20439;-86
2022/01/29 05:31:02;;;;;;;0.30;0.10;;;1.00;99.90;;;;;;5064791;28;20519;-86
2022/01/29 05:33:29;;;;;;;0.30;0.10;;;1.00;99.90;;;;;;5064297;28;20252;-81
2022/01/29 05:35:56;;;;;;;0.30;0.10;;;1.00;99.90;;;;;;5063822;28;20265;-86
2022/01/29 05:38:25;;;;;;;0.30;0.10;;;1.10;99.90;;;;;;5066297;28;20249;-83
2022/01/29 05:40:54;;;;;;;0.30;0.10;;;1.20;99.90;;;;;;5059515;28;20234;-86
2022/01/29 05:43:21;;;;;;;0.30;0.10;;;1.20;99.90;;;;;;5071096;28;20227;-86
2022/01/29 05:45:48;;;;;;;0.30;0.20;;;1.30;99.90;;;;;;5076928;28;20458;-85
2022/01/29 05:48:15;;;;;;;0.30;0.10;;;1.30;99.90;;;;;;5070495;28;20997;-86
2022/01/29 05:50:42;;;;;;;0.30;0.10;;;1.30;99.90;;;;;;5052400;28;20199;-85
2022/01/29 05:53:09;;;;;;;0.30;0.10;;;1.40;99.90;;;;;;5033757;28;20263;-87
2022/01/29 05:55:36;;;;;;;0.30;0.10;;;1.30;99.90;;;;;;5053620;28;20675;-86
2022/01/29 05:58:04;;;;;;;0.30;0.10;;;1.40;99.90;;;;;;5048090;28;20285;-86
2022/01/29 06:00:32;;;;;;;0.30;0.10;;;1.40;99.90;;;;;;5040512;28;20226;-87
2022/01/29 06:03:00;;;;;;;0.30;0.10;;;1.40;99.90;;;;;;5033249;28;20275;-86
2022/01/29 06:05:27;;;;;;;0.30;0.10;;;1.40;99.90;;;;;;5037760;28;20708;-85
2022/01/29 06:07:55;;;;;;;0.30;0.10;;;1.50;99.90;;;;;;5045247;28;20210;-84
2022/01/29 06:10:22;;;;;;;0.30;0.10;;;1.50;99.90;;;;;;5039447;28;20584;-86
2022/01/29 06:12:58;;;;;;;0.30;0.10;;;1.50;99.90;;;;;;5062580;28;20285;-87
2022/01/29 06:15:27;;;;;;;0.30;0.10;;;1.50;99.90;;;;;;5040536;28;20676;-87
2022/01/29 06:17:55;;;;;;;0.30;0.10;;;1.50;99.90;;;;;;5034112;28;20202;-86
2022/01/29 06:20:22;;;;;;;0.30;0.10;;;1.50;99.90;;;;;;5031620;28;20206;-85
2022/01/29 06:22:49;;;;;;;0.30;0.10;;;1.60;99.90;;;;;;5036643;28;20224;-86
2022/01/29 06:25:16;;;;;;;0.30;0.10;;;1.60;99.90;;;;;;5034180;28;20194;-87
2022/01/29 06:27:43;;;;;;;0.30;0.10;;;1.60;99.90;;;;;;5046302;28;20197;-86
2022/01/29 06:30:11;;;;;;;0.30;0.10;;;1.70;99.90;;;;;;5038542;28;20503;-85
2022/01/29 06:32:40;;;;;;;0.30;0.10;;;1.60;99.90;;;;;;5031068;28;20449;-85
2022/01/29 06:35:08;;;;;;;0.40;0.30;;;1.60;99.90;;;;;;5031254;28;20535;-86
2022/01/29 06:37:35;;;;;;;0.30;0.10;;;1.60;99.90;;;;;;5031307;28;20491;-87
2022/01/29 06:40:02;;;;;;;0.30;0.10;;;1.60;99.90;;;;;;5031642;28;20456;-86
2022/01/29 06:42:29;;;;;;;0.30;0.10;;;1.60;99.90;;;;;;5036724;28;20537;-85
2022/01/29 06:44:56;;;;;;;0.30;0.10;;;1.70;99.90;;;;;;5050607;28;20491;-87
2022/01/29 06:47:22;;;;;;;0.30;0.10;;;1.70;99.90;;;;;;5048250;28;20539;-85
2022/01/29 06:49:51;;;;;;;0.30;0.10;;;1.70;99.90;;;;;;5032748;28;20460;-89
2022/01/29 06:52:18;;;;;;;0.30;0.10;;;1.70;99.90;;;;;;5046198;28;20931;-92
2022/01/29 06:54:45;;;;;;;0.30;0.10;;;1.70;99.90;;;;;;5066420;28;20493;-88
2022/01/29 06:57:12;;;;;;;0.30;0.20;;;1.70;99.90;;;;;;5068211;28;20467;-89
2022/01/29 06:59:39;;;;;;;0.30;0.10;;;1.70;99.90;;;;;;5061901;28;20487;-87
2022/01/29 07:02:06;;;;;;;0.30;0.10;;;1.80;99.90;;;;;;5046269;28;20534;-88
2022/01/29 07:04:33;;;;;;;0.30;0.10;;;1.80;99.90;;;;;;5063698;28;20262;-87
2022/01/29 07:07:01;;;;;;;0.30;0.20;;;1.80;99.90;;;;;;5052312;28;20452;-87
2022/01/29 07:09:28;;;;;;;0.30;0.10;;;1.80;99.90;;;;;;5049287;28;20519;-89
2022/01/29 07:11:58;;;;;;;0.30;0.17;;;1.80;99.90;;;;;;5050505;28;20452;-87
2022/01/29 07:14:26;;;;;;;0.30;0.10;;;1.80;99.90;;;;;;5050823;28;20450;-88
2022/01/29 07:16:52;;;;;;;0.30;0.10;;;1.80;99.90;;;;;;5034642;28;20494;-88
2022/01/29 07:19:19;;;;;;;0.30;0.20;;;1.90;99.90;;;;;;5050783;28;20783;-88
2022/01/29 07:21:46;;;;;;;0.30;0.20;;;1.90;99.90;;;;;;5066545;28;20480;-87
2022/01/29 07:24:15;;;;;;;0.30;0.10;;;2.00;99.90;;;;;;5067994;28;20440;-87
2022/01/29 07:26:42;;;;;;;0.30;0.10;;;2.00;99.90;;;;;;5037497;28;20440;-85
2022/01/29 07:29:09;;;;;;;0.30;0.10;;;2.00;99.90;;;;;;5031186;28;20253;-86
2022/01/29 07:31:36;;;;;;;0.30;0.10;;;2.10;99.90;;;;;;5035840;28;20491;-87
2022/01/29 07:34:03;;;;;;;0.30;0.10;;;2.10;99.90;;;;;;5075423;28;20518;-85
2022/01/29 07:36:30;;;;;;;0.30;0.10;;;2.10;99.90;;;;;;5064483;28;20446;-86
2022/01/29 07:38:56;;;;;;;0.30;0.10;;;2.20;99.90;;;;;;5055208;28;20445;-86
2022/01/29 07:41:25;;;;;;;0.30;0.10;;;2.20;99.90;;;;;;5072521;28;20220;-84
2022/01/29 07:43:52;;;;;;;0.30;0.20;;;2.30;99.90;;;;;;5067983;28;20445;-85
2022/01/29 07:46:19;;;;;;;1.00;0.97;;;2.30;99.90;;;;;;5074954;28;21166;-87
2022/01/29 07:48:46;;;;;;;0.30;0.10;;;2.30;99.90;;;;;;5070601;28;20590;-85
2022/01/29 07:51:12;;;;;;;0.30;0.10;;;2.30;99.90;;;;;;5057192;28;20447;-84
2022/01/29 07:53:39;;;;;;;0.30;0.10;;;2.40;99.90;;;;;;5058583;28;20472;-85
2022/01/29 07:56:06;;;;;;;0.30;0.10;;;2.40;99.90;;;;;;5060834;28;20448;-87
2022/01/29 07:58:35;;;;;;;0.30;0.10;;;2.40;99.90;;;;;;5060900;28;20445;-87
2022/01/29 08:01:02;;;;;;;4.43;0.93;;;2.50;99.90;;;;;;5042323;28;20476;-87
2022/01/29 08:03:29;;;;;;;0.30;0.10;;;2.60;99.90;;;;;;5055850;28;20724;-86
2022/01/29 08:05:56;;;;;;;0.50;0.40;;;2.60;99.90;;;;;;5052927;28;20475;-89
2022/01/29 08:08:23;;;;;;;0.40;0.30;;;2.60;99.90;;;;;;5054843;28;20879;-89
2022/01/29 08:10:50;;;;;;;0.30;0.10;;;2.70;99.90;;;;;;5052732;28;20529;-87
2022/01/29 08:13:17;;;;;;;3.60;1.30;;;2.70;99.90;;;;;;5051172;28;20456;-89
2022/01/29 08:15:45;;;;;;;0.30;0.20;;;2.70;99.90;;;;;;5051566;28;20529;-88
2022/01/29 08:18:12;;;;;;;0.30;0.10;;;2.80;99.90;;;;;;5032784;28;20465;-87
2022/01/29 08:20:39;;;;;;;0.30;0.20;;;2.80;99.90;;;;;;5031984;28;20456;-89
2022/01/29 08:23:08;;;;;;;0.50;0.47;;;2.90;99.90;;;;;;5037496;28;20538;-90
2022/01/29 08:25:35;;;;;;;0.30;0.20;;;3.00;99.90;;;;;;5044801;28;20477;-86
2022/01/29 08:28:02;;;;;;;0.30;0.20;;;3.00;99.90;;;;;;5049232;28;20513;-87
2022/01/29 08:30:29;;;;;;;0.30;0.10;;;3.10;99.90;;;;;;5048301;28;21332;-90
2022/01/29 08:32:58;;;;;;;0.30;0.10;;;3.10;99.90;;;;;;5042342;28;20944;-88
2022/01/29 08:35:25;;;;;;;0.30;0.20;;;3.20;99.90;;;;;;5052986;28;20456;-90
2022/01/29 08:37:53;;;;;;;0.30;0.10;;;3.30;99.90;;;;;;5050666;28;20813;-88
2022/01/29 08:40:21;;;;;;;0.30;0.20;;;3.30;99.90;;;;;;5061303;28;20455;-87
2022/01/29 08:42:48;;;;;;;0.30;0.10;;;3.30;99.90;;;;;;5060073;28;20541;-89
2022/01/29 08:45:15;;;;;;;0.40;0.30;;;3.30;99.90;;;;;;5052919;28;20449;-88
2022/01/29 08:47:42;;;;;;;0.30;0.20;;;3.50;99.90;;;;;;5045822;28;20531;-88
2022/01/29 08:50:12;;;;;;;1.10;1.10;;;3.70;99.90;;;;;;5052816;28;20473;-86
2022/01/29 08:52:39;;;;;;;0.30;0.20;;;3.80;99.90;;;;;;5055718;28;20449;-82
2022/01/29 08:55:08;;;;;;;0.30;0.10;;;3.70;99.90;;;;;;5064033;28;20440;-86
2022/01/29 08:57:35;;;;;;;0.30;0.13;;;3.70;99.90;;;;;;5054557;28;21029;-84
2022/01/29 09:00:05;;;;;;;0.30;0.20;;;3.70;99.90;;;;;;5065694;28;20507;-83
2022/01/29 09:02:32;;;;;;;0.30;0.10;;;3.80;99.90;;;;;;5053983;28;21004;-83
2022/01/29 09:04:59;;;;;;;0.30;0.20;;;3.80;99.90;;;;;;5052907;28;20989;-82
2022/01/29 09:07:27;;;;;;;0.30;0.10;;;4.00;99.90;;;;;;5036989;28;20465;-84
2022/01/29 09:09:55;;;;;;;0.30;0.20;;;3.90;99.90;;;;;;5039269;28;20599;-83
2022/01/29 09:12:23;;;;;;;0.30;0.10;;;4.00;99.90;;;;;;5041843;28;20458;-87
2022/01/29 09:14:49;;;;;;;0.30;0.20;;;4.00;99.90;;;;;;5041342;28;20514;-83
2022/01/29 09:17:16;;;;;;;0.30;0.20;;;4.20;99.90;;;;;;5052058;28;20441;-83
2022/01/29 09:19:43;;;;;;;0.30;0.10;;;4.30;99.90;;;;;;5036379;28;20487;-83
2022/01/29 09:22:11;;;;;;;0.30;0.10;;;4.40;99.90;;;;;;5050560;28;20988;-83
2022/01/29 09:24:39;;;;;;;0.30;0.20;;;4.40;99.90;;;;;;5052064;28;20464;-86
2022/01/29 09:27:06;;;;;;;0.30;0.10;;;4.30;99.90;;;;;;5050166;28;20888;-84
2022/01/29 09:29:33;;;;;;;0.50;0.20;;;4.20;99.90;;;;;;5038416;28;20527;-85
2022/01/29 09:32:00;;;;;;;0.30;0.10;;;4.10;99.90;;;;;;5031696;28;20786;-84
2022/01/29 09:34:27;;;;;;;0.30;0.10;;;4.10;99.90;;;;;;5031447;28;20507;-89
2022/01/29 09:36:54;;;;;;;0.30;0.10;;;4.00;99.90;;;;;;5046987;28;20549;-82
2022/01/29 09:39:21;;;;;;;0.30;0.10;;;3.90;99.90;;;;;;5051735;28;20448;-81
2022/01/29 09:41:50;;;;;;;0.30;0.10;;;3.90;99.90;;;;;;5041550;28;20504;-82
2022/01/29 09:44:17;;;;;;;0.30;0.10;;;3.90;99.90;;;;;;5041435;28;20534;-83
2022/01/29 09:46:46;;;;;;;0.30;0.17;;;3.90;99.90;;;;;;5048828;28;20456;-82
2022/01/29 09:49:13;;;;;;;0.30;0.10;;;3.90;99.90;;;;;;5051289;28;20488;-82
2022/01/29 09:51:41;;;;;;;0.30;0.10;;;4.00;99.90;;;;;;5034764;28;20465;-81
2022/01/29 09:54:08;;;;;;;0.30;0.10;;;4.10;99.90;;;;;;5032077;28;20457;-81
2022/01/29 09:56:35;;;;;;;0.30;0.10;;;4.20;99.90;;;;;;5046693;28;20449;-86
2022/01/29 09:59:04;;;;;;;0.30;0.10;;;4.10;99.90;;;;;;5042336;28;20508;-84
2022/01/29 10:01:32;;;;;;;0.30;0.10;;;4.20;99.90;;;;;;5031687;28;20445;-83
2022/01/29 10:04:01;;;;;;;0.30;0.20;;;4.20;99.90;;;;;;5031405;28;20535;-83
2022/01/29 10:06:28;;;;;;;0.30;0.10;;;4.20;99.90;;;;;;5031930;28;20468;-84
2022/01/29 10:08:55;;;;;;;0.30;0.10;;;4.30;99.90;;;;;;5035452;28;20446;-83
2022/01/29 10:11:25;;;;;;;0.33;0.17;;;4.30;99.90;;;;;;5046454;28;20457;-81
2022/01/29 10:13:53;;;;;;;0.30;0.10;;;4.30;99.90;;;;;;5050655;28;20459;-83
2022/01/29 10:16:26;;;;;;;0.30;0.10;;;4.40;99.90;;;;;;5034126;28;20457;-81
2022/01/29 10:19:01;;;;;;;0.30;0.10;;;4.40;99.90;;;;;;5031133;28;20552;-84
2022/01/29 10:21:32;;;;;;;0.30;0.10;;;4.30;99.90;;;;;;5031504;28;20453;-84
2022/01/29 10:24:03;;;;;;;1.13;1.03;;;4.40;99.90;;;;;;5033857;28;20473;-83
2022/01/29 10:26:33;;;;;;;0.30;0.10;;;4.40;99.90;;;;;;5048786;28;20836;-81
2022/01/29 10:29:00;;;;;;;0.30;0.10;;;4.40;99.90;;;;;;5065344;28;20441;-83
2022/01/29 10:31:39;;;;;;;0.30;0.10;;;4.30;99.90;;;;;;5064466;28;20440;-81
2022/01/29 10:34:16;;;;;;;0.97;0.57;;;4.40;99.90;;;;;;5061692;28;20474;-82
2022/01/29 10:36:43;;;;;;;0.30;0.20;;;4.40;99.90;;;;;;5056790;28;20846;-83
2022/01/29 10:39:10;;;;;;;0.30;0.10;;;4.50;99.90;;;;;;5051271;28;21010;-82
2022/01/29 10:41:37;;;;;;;0.30;0.20;;;4.50;99.90;;;;;;5044518;28;20507;-81
2022/01/29 10:44:17;;;;;;;0.30;0.10;;;4.60;99.90;;;;;;5046343;28;20508;-81
2022/01/29 10:46:48;;;;;;;0.30;0.10;;;4.60;99.80;;;;;;5049407;28;20460;-82
2022/01/29 10:49:26;;;;;;;0.30;0.10;;;4.60;98.80;;;;;;5049809;28;20441;-81
2022/01/29 10:51:58;;;;;;;0.30;0.13;;;4.70;98.90;;;;;;5049291;28;20460;-82
2022/01/29 10:54:25;;;;;;;0.30;0.10;;;4.70;99.10;;;;;;5050373;28;20503;-81
2022/01/29 10:56:55;;;;;;;0.30;0.10;;;4.70;99.70;;;;;;5065813;28;20498;-81
2022/01/29 10:59:22;;;;;;;0.30;0.10;;;4.80;99.60;;;;;;5061813;28;20483;-81
2022/01/29 11:01:56;;;;;;;0.30;0.20;;;4.80;99.50;;;;;;5057145;28;20457;-81
2022/01/29 11:04:25;;;;;;;0.30;0.10;;;4.80;99.80;;;;;;5056567;28;20851;-82
2022/01/29 11:06:53;;;;;;;0.30;0.10;;;4.80;99.90;;;;;;5053059;28;20460;-84
2022/01/29 11:09:22;;;;;;;0.30;0.10;;;4.80;99.60;;;;;;5049337;28;20757;-83
2022/01/29 11:11:51;;;;;;;0.30;0.10;;;4.80;99.90;;;;;;5048408;28;20444;-83
2022/01/29 11:14:20;;;;;;;0.30;0.10;;;4.70;99.90;;;;;;5036715;28;20859;-84
2022/01/29 11:16:48;;;;;;;0.30;0.10;;;4.80;99.90;;;;;;5030845;28;20449;-84
2022/01/29 11:19:17;;;;;;;0.30;0.10;;;4.70;99.90;;;;;;5046368;28;20441;-82
2022/01/29 11:21:47;;;;;;;0.30;0.10;;;4.80;99.90;;;;;;5045506;28;20478;-81
2022/01/29 11:24:18;;;;;;;0.30;0.10;;;4.80;99.90;;;;;;5044741;28;20484;-81
2022/01/29 11:26:46;;;;;;;0.30;0.10;;;4.70;99.90;;;;;;5038706;28;21170;-81
2022/01/29 11:29:34;;;;;;;0.30;0.10;;;4.70;99.90;;;;;;5043176;28;20464;-81
2022/01/29 11:32:33;;;;;;;0.30;0.10;;;4.70;99.90;;;;;;5029609;28;20537;-81
2022/01/29 11:35:13;;;;;;;0.30;0.20;;;4.70;99.90;;;;;;5033215;28;20465;-81
2022/01/29 11:37:43;;;;;;;0.30;0.20;;;4.70;99.90;;;;;;5045763;28;20506;-82
2022/01/29 11:40:13;;;;;;;0.47;0.47;;;4.70;99.90;;;;;;5048807;28;20510;-81
2022/01/29 11:42:57;;;;;;;0.30;0.10;;;4.70;99.90;;;;;;5052065;28;20857;-81
2022/01/29 11:45:43;;;;;;;0.30;0.10;;;4.80;99.90;;;;;;5062136;28;20459;-81
2022/01/29 11:48:39;;;;;;;0.30;0.10;;;4.80;99.90;;;;;;5047082;28;20444;-81
2022/01/29 11:51:09;;;;;;;0.30;0.10;;;4.70;99.90;;;;;;5039053;28;20618;-81
2022/01/29 11:53:58;;;;;;;0.30;0.10;;;4.70;99.90;;;;;;5048753;28;20464;-83
2022/01/29 11:56:31;;;;;;;0.30;0.10;;;4.60;99.90;;;;;;5048717;28;20939;-81
2022/01/29 11:59:31;;;;;;;0.30;0.10;;;4.70;99.40;;;;;;5040859;28;20499;-81
2022/01/29 12:02:01;;;;;;;0.30;0.20;;;4.50;99.90;;;;;;5026966;28;20465;-81
2022/01/29 12:05:06;;;;;;;0.30;0.10;;;4.60;99.90;;;;;;5043727;28;20478;-80
2022/01/29 12:07:40;;;;;;;0.30;0.10;;;4.60;99.70;;;;;;5056479;28;21239;-81
2022/01/29 12:10:10;;;;;;;0.30;0.10;;;4.70;98.70;;;;;;5051943;28;20500;-81
2022/01/29 12:12:38;;;;;;;0.30;0.10;;;4.70;98.40;;;;;;5055984;28;20445;-84
2022/01/29 12:15:37;;;;;;;0.30;0.10;;;4.70;98.20;;;;;;5049517;28;20469;-85
2022/01/29 12:18:09;;;;;;;0.30;0.10;;;4.60;98.50;;;;;;5034653;28;20457;-81
2022/01/29 12:20:36;;;;;;;0.30;0.10;;;4.60;99.20;;;;;;5041794;28;20545;-81
2022/01/29 12:23:06;;;;;;;0.30;0.10;;;4.60;98.80;;;;;;5043861;28;20465;-80
2022/01/29 12:25:33;;;;;;;0.30;0.10;;;4.60;99.30;;;;;;5033670;28;20461;-82
2022/01/29 12:28:02;;;;;;;0.30;0.20;;;4.60;99.30;;;;;;5043246;28;20475;-82
2022/01/29 12:30:31;;;;;;;0.30;0.10;;;4.70;98.70;;;;;;5033905;28;20449;-80
2022/01/29 12:33:03;;;;;;;0.30;0.10;;;4.70;98.70;;;;;;5047590;28;20460;-81
2022/01/29 12:35:39;;;;;;;1.50;1.40;;;4.70;98.50;;;;;;5033166;28;20434;-83
2022/01/29 12:38:09;;;;;;;0.30;0.20;;;4.70;98.80;;;;;;5032542;28;20442;-82
2022/01/29 12:40:39;;;;;;;0.30;0.10;;;4.70;98.70;;;;;;5041918;28;20458;-82
2022/01/29 12:43:21;;;;;;;0.30;0.10;;;4.70;98.20;;;;;;5038931;28;20937;-83
2022/01/29 12:45:49;;;;;;;0.30;0.20;;;4.70;98.20;;;;;;5045145;28;20444;-83
2022/01/29 12:48:17;;;;;;;0.50;0.50;;;4.70;98.80;;;;;;5044860;28;20466;-82
2022/01/29 12:50:44;;;;;;;0.30;0.10;;;4.70;98.90;;;;;;5048529;28;20464;-82
2022/01/29 12:53:16;;;;;;;0.30;0.10;;;4.70;98.50;;;;;;5032787;28;20452;-85
2022/01/29 12:55:43;;;;;;;0.30;0.20;;;4.70;97.60;;;;;;5032709;28;20469;-84
2022/01/29 12:58:11;;;;;;;0.30;0.10;;;4.80;97.40;;;;;;5032880;28;20466;-83
2022/01/29 13:00:39;;;;;;;0.30;0.10;;;4.90;96.40;;;;;;5050512;28;20468;-82
2022/01/29 13:03:08;;;;;;;0.30;0.10;;;5.00;95.60;;;;;;5051969;28;20441;-83
2022/01/29 13:05:40;;;;;;;0.30;0.10;;;5.10;95.40;;;;;;5032685;28;20540;-83
2022/01/29 13:08:08;;;;;;;0.30;0.10;;;5.10;95.60;;;;;;5044793;28;20453;-83
2022/01/29 13:10:36;;;;;;;0.30;0.10;;;5.20;94.50;;;;;;5049822;28;20461;-83
2022/01/29 13:13:05;;;;;;;0.30;0.10;;;5.20;93.80;;;;;;5050263;28;20471;-86
2022/01/29 13:15:37;;;;;;;0.30;0.10;;;5.10;95.40;;;;;;5045790;28;20472;-85
2022/01/29 13:18:06;;;;;;;0.30;0.10;;;5.00;95.50;;;;;;5061850;28;20476;-86